createdAt,value
2019-01-19T00:00:47.059Z,19.70
2019-01-19T00:01:47.047Z,17.20
2019-01-19T00:02:47.045Z,16.90
2019-01-19T00:03:47.022Z,19.10
2019-01-19T00:04:47.007Z,21.80
2019-01-19T00:05:46.996Z,19.30
2019-01-19T00:06:46.981Z,18.80
2019-01-19T00:07:46.970Z,20.10
2019-01-19T00:08:46.956Z,17.40
2019-01-19T00:09:46.944Z,16.80
2019-01-19T00:10:46.929Z,18.80
2019-01-19T00:11:46.918Z,19.20
2019-01-19T00:12:46.904Z,20.20
2019-01-19T00:13:46.892Z,18.20
2019-01-19T00:14:46.878Z,19.30
2019-01-19T00:15:47.018Z,18.90
2019-01-19T00:16:46.852Z,20.50
2019-01-19T00:17:46.841Z,17.50
2019-01-19T00:18:46.826Z,17.60
2019-01-19T00:19:46.816Z,18.70
2019-01-19T00:20:46.802Z,20.50
2019-01-19T00:21:46.789Z,21.10
2019-01-19T00:22:46.774Z,18.00
2019-01-19T00:23:46.765Z,17.90
2019-01-19T00:24:46.749Z,18.90
2019-01-19T00:25:46.738Z,17.10
2019-01-19T00:26:46.723Z,18.10
2019-01-19T00:27:46.712Z,19.60
2019-01-19T00:28:46.698Z,19.00
2019-01-19T00:29:46.686Z,17.20
2019-01-19T00:30:46.672Z,17.60
2019-01-19T00:31:46.661Z,17.10
2019-01-19T00:32:46.646Z,18.60
2019-01-19T00:33:46.634Z,17.80
2019-01-19T00:34:46.619Z,18.80
2019-01-19T00:35:46.610Z,17.80
2019-01-19T00:36:46.594Z,18.10
2019-01-19T00:37:46.583Z,18.30
2019-01-19T00:38:46.570Z,18.20
2019-01-19T00:39:46.559Z,18.00
2019-01-19T00:40:46.553Z,18.80
2019-01-19T00:41:46.532Z,17.70
2019-01-19T00:42:46.520Z,18.90
2019-01-19T00:43:46.507Z,19.80
2019-01-19T00:44:46.494Z,16.90
2019-01-19T00:45:46.479Z,17.40
2019-01-19T00:46:46.475Z,18.20
2019-01-19T00:47:46.460Z,19.00
2019-01-19T00:48:46.441Z,16.80
2019-01-19T00:49:46.430Z,18.70
2019-01-19T00:50:46.413Z,18.70
2019-01-19T00:51:46.405Z,17.30
2019-01-19T00:52:46.399Z,18.60
2019-01-19T00:53:46.377Z,19.00
2019-01-19T00:54:46.361Z,20.00
2019-01-19T00:55:46.351Z,18.70
2019-01-19T00:56:46.337Z,17.40
2019-01-19T00:57:46.324Z,17.50
2019-01-19T00:58:46.311Z,19.10
2019-01-19T00:59:46.304Z,15.50
2019-01-19T01:00:46.284Z,18.70
2019-01-19T01:01:46.273Z,17.30
2019-01-19T01:02:46.258Z,15.70
2019-01-19T01:03:46.247Z,15.30
2019-01-19T01:04:46.240Z,15.50
2019-01-19T01:05:46.222Z,16.50
2019-01-19T01:06:46.207Z,14.30
2019-01-19T01:07:46.196Z,15.90
2019-01-19T01:08:46.185Z,16.70
2019-01-19T01:09:46.185Z,16.50
2019-01-19T01:10:46.161Z,17.20
2019-01-19T01:11:46.144Z,13.50
2019-01-19T01:12:46.130Z,14.00
2019-01-19T01:13:46.123Z,15.40
2019-01-19T01:14:46.103Z,14.10
2019-01-19T01:15:46.093Z,14.50
2019-01-19T01:16:46.078Z,16.10
2019-01-19T01:17:46.067Z,17.10
2019-01-19T01:18:46.052Z,16.10
2019-01-19T01:19:46.044Z,17.80
2019-01-19T01:20:46.027Z,15.90
2019-01-19T01:21:46.015Z,17.10
2019-01-19T01:22:46.001Z,19.10
2019-01-19T01:23:45.996Z,18.60
2019-01-19T01:24:45.976Z,19.10
2019-01-19T01:25:45.964Z,17.80
2019-01-19T01:26:45.950Z,18.80
2019-01-19T01:27:45.940Z,18.80
2019-01-19T01:28:45.925Z,18.60
2019-01-19T01:29:45.913Z,16.10
2019-01-19T01:30:45.902Z,16.30
2019-01-19T01:31:45.888Z,14.80
2019-01-19T01:32:45.873Z,14.30
2019-01-19T01:33:45.862Z,15.70
2019-01-19T01:34:45.848Z,14.80
2019-01-19T01:35:45.838Z,16.60
2019-01-19T01:36:45.825Z,14.30
2019-01-19T01:37:45.810Z,14.30
2019-01-19T01:38:45.800Z,15.00
2019-01-19T01:39:45.785Z,13.80
2019-01-19T01:40:45.775Z,15.80
2019-01-19T01:41:45.760Z,12.40
2019-01-19T01:42:45.743Z,14.70
2019-01-19T01:43:45.743Z,15.10
2019-01-19T01:44:45.718Z,15.20
2019-01-19T01:45:45.708Z,13.40
2019-01-19T01:46:45.691Z,15.00
2019-01-19T01:47:45.681Z,14.00
2019-01-19T01:48:45.676Z,13.40
2019-01-19T01:49:45.655Z,14.00
2019-01-19T01:50:45.642Z,14.40
2019-01-19T01:51:45.628Z,14.40
2019-01-19T01:52:45.613Z,13.40
2019-01-19T01:53:45.602Z,14.00
2019-01-19T01:54:45.587Z,13.00
2019-01-19T01:55:45.577Z,13.10
2019-01-19T01:56:45.561Z,14.10
2019-01-19T01:57:45.553Z,14.80
2019-01-19T01:58:45.536Z,14.10
2019-01-19T01:59:45.525Z,15.00
2019-01-19T02:00:45.509Z,15.00
2019-01-19T02:01:45.499Z,14.60
2019-01-19T02:02:45.483Z,14.90
2019-01-19T02:03:45.473Z,14.80
2019-01-19T02:04:45.458Z,14.10
2019-01-19T02:05:45.446Z,15.70
2019-01-19T02:06:45.432Z,14.50
2019-01-19T02:07:45.421Z,15.10
2019-01-19T02:08:45.405Z,16.30
2019-01-19T02:09:45.394Z,13.90
2019-01-19T02:10:45.380Z,14.30
2019-01-19T02:11:45.370Z,14.60
2019-01-19T02:12:45.355Z,16.80
2019-01-19T02:13:45.344Z,15.50
2019-01-19T02:14:45.330Z,14.50
2019-01-19T02:15:45.321Z,14.30
2019-01-19T02:16:45.318Z,16.00
2019-01-19T02:17:45.292Z,16.10
2019-01-19T02:18:45.278Z,16.00
2019-01-19T02:19:45.267Z,16.20
2019-01-19T02:20:45.260Z,15.10
2019-01-19T02:21:45.240Z,18.10
2019-01-19T02:22:45.225Z,16.50
2019-01-19T02:23:45.217Z,16.40
2019-01-19T02:24:45.205Z,16.80
2019-01-19T02:25:45.189Z,16.50
2019-01-19T02:26:45.175Z,15.50
2019-01-19T02:27:45.165Z,15.50
2019-01-19T02:28:45.153Z,15.90
2019-01-19T02:29:45.138Z,15.80
2019-01-19T02:30:45.122Z,18.90
2019-01-19T02:31:45.115Z,14.30
2019-01-19T02:32:45.098Z,14.50
2019-01-19T02:33:45.086Z,14.30
2019-01-19T02:34:45.071Z,14.00
2019-01-19T02:35:48.605Z,14.30
2019-01-19T02:36:45.050Z,14.80
2019-01-19T02:37:45.036Z,15.60
2019-01-19T02:38:45.021Z,16.60
2019-01-19T02:39:45.009Z,18.10
2019-01-19T02:40:44.997Z,17.30
2019-01-19T02:41:44.984Z,16.10
2019-01-19T02:42:44.968Z,15.20
2019-01-19T02:43:44.958Z,14.80
2019-01-19T02:44:44.961Z,13.10
2019-01-19T02:45:44.931Z,14.50
2019-01-19T02:46:44.922Z,15.50
2019-01-19T02:47:44.910Z,16.20
2019-01-19T02:48:44.893Z,14.10
2019-01-19T02:49:44.880Z,14.20
2019-01-19T02:50:44.870Z,15.90
2019-01-19T02:51:44.855Z,14.80
2019-01-19T02:52:44.840Z,13.30
2019-01-19T02:53:44.829Z,12.40
2019-01-19T02:54:44.813Z,15.80
2019-01-19T02:55:44.808Z,12.70
2019-01-19T02:56:44.793Z,13.40
2019-01-19T02:57:44.778Z,14.40
2019-01-19T02:58:44.762Z,14.80
2019-01-19T02:59:44.750Z,12.80
2019-01-19T03:00:44.739Z,14.60
2019-01-19T03:01:44.723Z,13.80
2019-01-19T03:02:44.712Z,12.00
2019-01-19T03:03:44.697Z,13.40
2019-01-19T03:04:44.937Z,14.00
2019-01-19T03:05:44.671Z,13.80
2019-01-19T03:06:44.662Z,16.20
2019-01-19T03:07:44.645Z,12.10
2019-01-19T03:08:44.635Z,13.00
2019-01-19T03:09:44.620Z,14.50
2019-01-19T03:10:44.608Z,14.80
2019-01-19T03:11:44.594Z,13.60
2019-01-19T03:12:44.583Z,14.00
2019-01-19T03:13:44.567Z,13.70
2019-01-19T03:14:44.558Z,15.50
2019-01-19T03:15:44.543Z,14.90
2019-01-19T03:16:44.532Z,13.60
2019-01-19T03:17:44.518Z,14.60
2019-01-19T03:18:44.510Z,15.10
2019-01-19T03:19:44.491Z,16.20
2019-01-19T03:20:44.481Z,13.40
2019-01-19T03:21:44.765Z,14.20
2019-01-19T03:22:44.455Z,12.50
2019-01-19T03:23:44.443Z,13.60
2019-01-19T03:24:44.432Z,15.70
2019-01-19T03:25:44.417Z,14.70
2019-01-19T03:26:44.408Z,16.80
2019-01-19T03:27:44.400Z,13.80
2019-01-19T03:28:44.379Z,14.80
2019-01-19T03:29:44.363Z,12.90
2019-01-19T03:30:44.365Z,14.60
2019-01-19T03:31:44.341Z,12.80
2019-01-19T03:32:44.356Z,13.50
2019-01-19T03:33:44.317Z,13.00
2019-01-19T03:34:44.452Z,12.50
2019-01-19T03:35:44.288Z,13.50
2019-01-19T03:36:44.278Z,12.70
2019-01-19T03:37:44.262Z,13.60
2019-01-19T03:38:44.252Z,13.30
2019-01-19T03:39:44.237Z,12.50
2019-01-19T03:40:44.227Z,13.20
2019-01-19T03:41:44.213Z,12.40
2019-01-19T03:42:44.204Z,11.40
2019-01-19T03:43:44.187Z,12.50
2019-01-19T03:44:44.176Z,13.20
2019-01-19T03:45:44.162Z,14.40
2019-01-19T03:46:44.151Z,12.30
2019-01-19T03:47:44.136Z,13.20
2019-01-19T03:48:44.126Z,11.20
2019-01-19T03:49:44.112Z,12.50
2019-01-19T03:50:44.099Z,14.10
2019-01-19T03:51:44.086Z,12.80
2019-01-19T03:52:44.076Z,11.20
2019-01-19T03:53:44.059Z,10.80
2019-01-19T03:54:44.049Z,14.10
2019-01-19T03:55:44.037Z,12.10
2019-01-19T03:56:44.025Z,11.00
2019-01-19T03:57:44.009Z,11.30
2019-01-19T03:58:44.008Z,11.50
2019-01-19T03:59:43.984Z,12.20
2019-01-19T04:00:43.975Z,10.70
2019-01-19T04:01:43.959Z,10.30
2019-01-19T04:02:43.950Z,11.30
2019-01-19T04:03:43.934Z,12.00
2019-01-19T04:04:43.925Z,11.90
2019-01-19T04:05:43.919Z,11.70
2019-01-19T04:06:43.897Z,10.80
2019-01-19T04:07:43.886Z,11.10
2019-01-19T04:08:43.875Z,10.20
2019-01-19T04:09:43.856Z,10.40
2019-01-19T04:10:43.846Z,11.20
2019-01-19T04:11:43.831Z,11.10
2019-01-19T04:12:43.824Z,10.30
2019-01-19T04:13:43.807Z,10.70
2019-01-19T04:14:43.801Z,9.90
2019-01-19T04:15:43.780Z,11.30
2019-01-19T04:16:43.774Z,11.60
2019-01-19T04:17:43.756Z,11.00
2019-01-19T04:18:43.744Z,10.30
2019-01-19T04:19:43.730Z,12.50
2019-01-19T04:20:43.720Z,10.90
2019-01-19T04:21:43.703Z,9.70
2019-01-19T04:22:43.693Z,9.70
2019-01-19T04:23:43.680Z,10.80
2019-01-19T04:24:43.668Z,9.90
2019-01-19T04:25:43.653Z,11.20
2019-01-19T04:26:43.642Z,11.20
2019-01-19T04:27:43.630Z,10.30
2019-01-19T04:28:43.617Z,10.10
2019-01-19T04:29:43.601Z,12.00
2019-01-19T04:30:43.592Z,12.20
2019-01-19T04:31:43.614Z,12.00
2019-01-19T04:32:43.582Z,11.20
2019-01-19T04:33:43.550Z,10.70
2019-01-19T04:34:43.540Z,11.70
2019-01-19T04:35:43.525Z,11.50
2019-01-19T04:36:43.517Z,10.90
2019-01-19T04:37:43.502Z,10.60
2019-01-19T04:38:43.489Z,10.70
2019-01-19T04:39:43.481Z,13.80
2019-01-19T04:40:43.464Z,12.30
2019-01-19T04:41:43.446Z,10.50
2019-01-19T04:42:43.446Z,12.40
2019-01-19T04:43:43.425Z,12.20
2019-01-19T04:44:43.410Z,11.30
2019-01-19T04:45:43.394Z,12.30
2019-01-19T04:46:43.384Z,11.90
2019-01-19T04:47:43.368Z,12.20
2019-01-19T04:48:43.357Z,11.80
2019-01-19T04:49:43.346Z,12.40
2019-01-19T04:50:43.332Z,13.00
2019-01-19T04:51:43.317Z,12.80
2019-01-19T04:52:43.305Z,10.60
2019-01-19T04:53:43.291Z,11.50
2019-01-19T04:54:43.279Z,11.10
2019-01-19T04:55:43.263Z,10.40
2019-01-19T04:56:43.252Z,11.50
2019-01-19T04:57:43.236Z,13.40
2019-01-19T04:58:43.225Z,11.60
2019-01-19T04:59:43.211Z,12.00
2019-01-19T05:00:43.201Z,12.90
2019-01-19T05:01:43.184Z,12.30
2019-01-19T05:02:43.174Z,10.90
2019-01-19T05:03:43.158Z,11.60
2019-01-19T05:04:43.151Z,13.00
2019-01-19T05:05:43.136Z,10.70
2019-01-19T05:06:43.122Z,10.50
2019-01-19T05:07:43.106Z,11.70
2019-01-19T05:08:43.098Z,11.50
2019-01-19T05:09:43.079Z,11.50
2019-01-19T05:10:43.069Z,11.90
2019-01-19T05:11:43.054Z,11.40
2019-01-19T05:12:43.043Z,11.30
2019-01-19T05:13:43.030Z,11.70
2019-01-19T05:14:43.017Z,11.60
2019-01-19T05:15:43.002Z,10.00
2019-01-19T05:16:42.993Z,12.70
2019-01-19T05:17:42.975Z,11.70
2019-01-19T05:18:42.965Z,10.20
2019-01-19T05:19:42.949Z,11.30
2019-01-19T05:20:42.939Z,11.40
2019-01-19T05:21:42.924Z,10.70
2019-01-19T05:22:42.912Z,11.40
2019-01-19T05:23:42.898Z,11.90
2019-01-19T05:24:42.887Z,11.30
2019-01-19T05:25:42.872Z,11.60
2019-01-19T05:26:42.861Z,11.10
2019-01-19T05:27:42.849Z,11.20
2019-01-19T05:28:42.835Z,11.00
2019-01-19T05:29:42.822Z,11.50
2019-01-19T05:30:42.808Z,10.60
2019-01-19T05:31:42.792Z,11.20
2019-01-19T05:32:42.782Z,13.20
2019-01-19T05:33:42.766Z,11.50
2019-01-19T05:34:42.756Z,11.00
2019-01-19T05:35:42.740Z,11.70
2019-01-19T05:36:42.729Z,12.80
2019-01-19T05:37:42.714Z,12.20
2019-01-19T05:38:42.703Z,12.20
2019-01-19T05:39:42.699Z,13.60
2019-01-19T05:40:42.677Z,12.00
2019-01-19T05:41:42.660Z,13.30
2019-01-19T05:42:42.656Z,11.60
2019-01-19T05:43:42.634Z,11.10
2019-01-19T05:44:42.625Z,12.60
2019-01-19T05:45:42.606Z,12.60
2019-01-19T05:46:42.596Z,11.90
2019-01-19T05:47:42.618Z,13.10
2019-01-19T05:48:42.570Z,11.60
2019-01-19T05:49:42.563Z,13.10
2019-01-19T05:50:42.552Z,11.30
2019-01-19T05:51:42.527Z,12.80
2019-01-19T05:52:42.517Z,12.30
2019-01-19T05:53:42.502Z,13.40
2019-01-19T05:54:42.507Z,13.30
2019-01-19T05:55:42.474Z,12.40
2019-01-19T05:56:42.463Z,11.00
2019-01-19T05:57:42.448Z,12.20
2019-01-19T05:58:42.435Z,12.20
2019-01-19T05:59:42.420Z,12.30
2019-01-19T06:00:42.410Z,13.60
2019-01-19T06:01:42.393Z,12.10
2019-01-19T06:02:42.383Z,11.20
2019-01-19T06:03:42.368Z,11.40
2019-01-19T06:04:42.359Z,11.90
2019-01-19T06:05:42.340Z,11.90
2019-01-19T06:06:47.044Z,10.70
2019-01-19T06:07:42.315Z,11.20
2019-01-19T06:08:42.305Z,12.30
2019-01-19T06:09:42.315Z,10.70
2019-01-19T06:10:42.279Z,10.90
2019-01-19T06:11:42.262Z,9.90
2019-01-19T06:12:42.253Z,11.90
2019-01-19T06:13:42.239Z,12.70
2019-01-19T06:14:42.224Z,13.40
2019-01-19T06:15:42.209Z,13.50
2019-01-19T06:16:42.198Z,13.50
2019-01-19T06:17:42.182Z,11.00
2019-01-19T06:18:42.173Z,10.30
2019-01-19T06:19:42.156Z,13.00
2019-01-19T06:20:42.146Z,12.40
2019-01-19T06:21:42.129Z,12.10
2019-01-19T06:22:42.119Z,10.70
2019-01-19T06:23:42.104Z,12.70
2019-01-19T06:24:42.094Z,9.70
2019-01-19T06:25:42.079Z,11.40
2019-01-19T06:26:42.066Z,11.60
2019-01-19T06:27:42.050Z,9.70
2019-01-19T06:28:42.041Z,13.00
2019-01-19T06:29:42.025Z,10.10
2019-01-19T06:30:42.014Z,11.30
2019-01-19T06:31:41.998Z,11.00
2019-01-19T06:32:41.990Z,10.50
2019-01-19T06:33:41.977Z,11.20
2019-01-19T06:34:41.961Z,10.20
2019-01-19T06:35:41.947Z,10.50
2019-01-19T06:36:41.943Z,10.40
2019-01-19T06:37:41.919Z,12.30
2019-01-19T06:38:41.908Z,9.60
2019-01-19T06:39:41.919Z,9.50
2019-01-19T06:40:41.883Z,9.60
2019-01-19T06:41:41.866Z,12.00
2019-01-19T06:42:41.855Z,11.00
2019-01-19T06:43:41.840Z,10.20
2019-01-19T06:44:41.830Z,10.10
2019-01-19T06:45:41.817Z,12.70
2019-01-19T06:46:41.802Z,9.50
2019-01-19T06:47:41.787Z,9.90
2019-01-19T06:48:41.777Z,11.80
2019-01-19T06:49:41.760Z,11.10
2019-01-19T06:50:41.750Z,12.30
2019-01-19T06:51:41.735Z,10.90
2019-01-19T06:52:41.724Z,12.10
2019-01-19T06:53:41.708Z,10.00
2019-01-19T06:54:41.699Z,10.70
2019-01-19T06:55:41.682Z,12.50
2019-01-19T06:56:41.674Z,10.80
2019-01-19T06:57:41.656Z,10.80
2019-01-19T06:58:41.647Z,10.80
2019-01-19T06:59:41.646Z,10.20
2019-01-19T07:00:41.622Z,10.50
2019-01-19T07:01:41.603Z,10.20
2019-01-19T07:02:43.159Z,9.90
2019-01-19T07:03:41.588Z,10.30
2019-01-19T07:04:41.570Z,10.30
2019-01-19T07:05:41.552Z,10.40
2019-01-19T07:06:41.540Z,10.60
2019-01-19T07:07:41.525Z,11.10
2019-01-19T07:08:41.515Z,10.00
2019-01-19T07:09:41.498Z,11.90
2019-01-19T07:10:41.487Z,13.10
2019-01-19T07:11:41.472Z,12.60
2019-01-19T07:12:41.462Z,12.80
2019-01-19T07:13:41.447Z,11.50
2019-01-19T07:14:41.435Z,10.30
2019-01-19T07:15:41.423Z,11.20
2019-01-19T07:16:41.407Z,10.80
2019-01-19T07:17:41.395Z,10.70
2019-01-19T07:18:41.383Z,11.80
2019-01-19T07:19:41.372Z,12.30
2019-01-19T07:20:41.355Z,10.80
2019-01-19T07:21:41.343Z,10.70
2019-01-19T07:22:41.327Z,11.50
2019-01-19T07:23:41.317Z,11.00
2019-01-19T07:24:41.302Z,11.40
2019-01-19T07:25:41.293Z,11.90
2019-01-19T07:26:41.276Z,12.80
2019-01-19T07:27:41.264Z,10.60
2019-01-19T07:28:41.251Z,11.90
2019-01-19T07:29:41.238Z,10.80
2019-01-19T07:30:41.222Z,10.70
2019-01-19T07:31:41.212Z,12.50
2019-01-19T07:32:41.196Z,10.60
2019-01-19T07:33:41.186Z,10.80
2019-01-19T07:34:41.169Z,11.90
2019-01-19T07:35:41.158Z,11.90
2019-01-19T07:36:41.143Z,13.10
2019-01-19T07:37:41.131Z,10.80
2019-01-19T07:38:41.117Z,12.10
2019-01-19T07:39:41.106Z,10.90
2019-01-19T07:40:41.090Z,11.20
2019-01-19T07:41:41.078Z,10.40
2019-01-19T07:42:41.063Z,12.70
2019-01-19T07:43:41.052Z,10.70
2019-01-19T07:44:41.037Z,10.70
2019-01-19T07:45:41.025Z,11.50
2019-01-19T07:46:41.009Z,12.10
2019-01-19T07:47:40.999Z,11.00
2019-01-19T07:48:40.984Z,10.90
2019-01-19T07:49:40.972Z,11.50
2019-01-19T07:50:40.956Z,10.00
2019-01-19T07:51:40.945Z,12.30
2019-01-19T07:52:40.934Z,10.70
2019-01-19T07:53:40.919Z,12.40
2019-01-19T07:54:40.903Z,13.80
2019-01-19T07:55:40.892Z,11.90
2019-01-19T07:56:40.878Z,11.00
2019-01-19T07:57:40.866Z,12.90
2019-01-19T07:58:40.849Z,12.10
2019-01-19T07:59:40.839Z,11.80
2019-01-19T08:00:40.823Z,11.90
2019-01-19T08:01:40.811Z,11.60
2019-01-19T08:02:40.796Z,11.30
2019-01-19T08:03:40.785Z,12.10
2019-01-19T08:04:40.769Z,11.20
2019-01-19T08:05:40.757Z,12.60
2019-01-19T08:06:40.741Z,11.10
2019-01-19T08:07:40.744Z,10.80
2019-01-19T08:08:40.722Z,12.60
2019-01-19T08:09:40.703Z,13.20
2019-01-19T08:10:40.690Z,12.10
2019-01-19T08:11:40.676Z,10.80
2019-01-19T08:12:40.662Z,13.00
2019-01-19T08:13:40.669Z,10.90
2019-01-19T08:14:40.633Z,12.40
2019-01-19T08:15:40.623Z,14.70
2019-01-19T08:16:40.606Z,13.20
2019-01-19T08:17:40.601Z,10.90
2019-01-19T08:18:40.579Z,11.30
2019-01-19T08:19:40.567Z,11.80
2019-01-19T08:20:40.551Z,10.90
2019-01-19T08:21:40.539Z,11.90
2019-01-19T08:22:40.525Z,11.00
2019-01-19T08:23:40.513Z,11.60
2019-01-19T08:24:40.497Z,14.10
2019-01-19T08:25:40.484Z,10.70
2019-01-19T08:26:40.469Z,13.30
2019-01-19T08:27:40.457Z,11.50
2019-01-19T08:28:40.441Z,11.60
2019-01-19T08:29:40.429Z,13.40
2019-01-19T08:30:40.414Z,11.80
2019-01-19T08:31:40.404Z,10.40
2019-01-19T08:32:40.389Z,11.60
2019-01-19T08:33:40.375Z,11.70
2019-01-19T08:34:40.359Z,12.10
2019-01-19T08:35:40.348Z,11.50
2019-01-19T08:36:40.331Z,11.80
2019-01-19T08:37:40.319Z,11.20
2019-01-19T08:38:40.304Z,10.50
2019-01-19T08:39:40.293Z,10.70
2019-01-19T08:40:40.277Z,12.10
2019-01-19T08:41:40.265Z,10.80
2019-01-19T08:42:40.250Z,10.90
2019-01-19T08:43:40.238Z,12.30
2019-01-19T08:44:40.222Z,12.30
2019-01-19T08:45:40.214Z,10.50
2019-01-19T08:46:40.194Z,10.70
2019-01-19T08:47:40.183Z,10.80
2019-01-19T08:48:40.167Z,10.60
2019-01-19T08:49:40.156Z,12.70
2019-01-19T08:50:40.144Z,10.60
2019-01-19T08:51:40.128Z,10.90
2019-01-19T08:52:40.113Z,12.20
2019-01-19T08:53:40.101Z,10.60
2019-01-19T08:54:40.085Z,12.20
2019-01-19T08:55:40.074Z,10.80
2019-01-19T08:56:40.058Z,11.80
2019-01-19T08:57:40.046Z,11.80
2019-01-19T08:58:40.031Z,11.90
2019-01-19T08:59:40.020Z,11.10
2019-01-19T09:00:40.004Z,11.10
2019-01-19T09:01:39.994Z,9.90
2019-01-19T09:02:39.977Z,11.80
2019-01-19T09:03:39.967Z,9.80
2019-01-19T09:04:39.950Z,10.80
2019-01-19T09:05:39.939Z,10.50
2019-01-19T09:06:39.924Z,9.10
2019-01-19T09:07:39.913Z,11.50
2019-01-19T09:08:39.898Z,9.80
2019-01-19T09:09:40.039Z,9.70
2019-01-19T09:10:39.870Z,11.60
2019-01-19T09:11:39.861Z,9.80
2019-01-19T09:12:39.844Z,10.50
2019-01-19T09:13:39.833Z,9.90
2019-01-19T09:14:39.818Z,9.80
2019-01-19T09:15:39.808Z,9.20
2019-01-19T09:16:41.634Z,9.20
2019-01-19T09:17:39.798Z,9.10
2019-01-19T09:18:39.765Z,11.20
2019-01-19T09:19:39.754Z,11.00
2019-01-19T09:20:39.739Z,10.00
2019-01-19T09:21:39.740Z,9.80
2019-01-19T09:22:39.713Z,8.80
2019-01-19T09:23:39.702Z,9.30
2019-01-19T09:24:39.687Z,9.00
2019-01-19T09:25:39.677Z,10.00
2019-01-19T09:26:39.660Z,8.50
2019-01-19T09:27:39.649Z,10.80
2019-01-19T09:28:39.634Z,9.60
2019-01-19T09:29:39.622Z,9.30
2019-01-19T09:30:39.659Z,10.30
2019-01-19T09:31:39.597Z,8.70
2019-01-19T09:32:39.581Z,10.70
2019-01-19T09:33:39.570Z,9.90
2019-01-19T09:34:39.555Z,8.90
2019-01-19T09:35:39.545Z,9.10
2019-01-19T09:36:39.529Z,8.70
2019-01-19T09:37:40.858Z,9.20
2019-01-19T09:38:39.503Z,9.00
2019-01-19T09:39:39.742Z,9.80
2019-01-19T09:40:39.478Z,8.90
2019-01-19T09:41:39.465Z,8.80
2019-01-19T09:42:39.450Z,8.50
2019-01-19T09:43:39.439Z,10.00
2019-01-19T09:44:39.425Z,9.30
2019-01-19T09:45:39.415Z,8.40
2019-01-19T09:46:39.398Z,10.90
2019-01-19T09:47:39.388Z,9.00
2019-01-19T09:48:39.373Z,8.00
2019-01-19T09:49:39.362Z,8.30
2019-01-19T09:50:39.347Z,8.10
2019-01-19T09:51:39.336Z,8.70
2019-01-19T09:52:39.323Z,9.00
2019-01-19T09:53:39.311Z,9.30
2019-01-19T09:54:39.298Z,8.30
2019-01-19T09:55:39.286Z,7.40
2019-01-19T09:56:39.273Z,8.40
2019-01-19T09:57:39.263Z,9.40
2019-01-19T09:58:39.246Z,9.20
2019-01-19T09:59:39.236Z,9.60
2019-01-19T10:00:45.479Z,8.40
2019-01-19T10:01:39.211Z,8.00
2019-01-19T10:02:39.197Z,8.60
2019-01-19T10:03:39.187Z,8.60
2019-01-19T10:04:39.174Z,7.80
2019-01-19T10:05:39.162Z,9.10
2019-01-19T10:06:39.149Z,9.20
2019-01-19T10:07:39.143Z,8.90
2019-01-19T10:08:39.128Z,7.40
2019-01-19T10:09:39.113Z,8.40
2019-01-19T10:10:39.098Z,8.20
2019-01-19T10:11:39.089Z,7.90
2019-01-19T10:12:39.075Z,8.00
2019-01-19T10:13:39.064Z,7.80
2019-01-19T10:14:39.629Z,7.80
2019-01-19T10:15:39.040Z,7.80
2019-01-19T10:16:39.027Z,7.90
2019-01-19T10:17:39.016Z,7.90
2019-01-19T10:18:39.001Z,7.90
2019-01-19T10:19:38.991Z,9.10
2019-01-19T10:20:38.977Z,7.50
2019-01-19T10:21:38.967Z,9.30
2019-01-19T10:22:38.952Z,7.50
2019-01-19T10:23:38.947Z,7.70
2019-01-19T10:24:38.929Z,7.90
2019-01-19T10:25:38.918Z,7.30
2019-01-19T10:26:38.903Z,7.10
2019-01-19T10:27:38.894Z,7.50
2019-01-19T10:28:38.880Z,7.00
2019-01-19T10:29:38.879Z,6.70
2019-01-19T10:30:38.855Z,6.20
2019-01-19T10:31:38.846Z,6.90
2019-01-19T10:32:38.831Z,7.30
2019-01-19T10:33:38.821Z,6.20
2019-01-19T10:34:38.820Z,5.90
2019-01-19T10:35:38.797Z,7.00
2019-01-19T10:36:38.782Z,6.00
2019-01-19T10:37:38.775Z,6.20
2019-01-19T10:38:38.759Z,5.80
2019-01-19T10:39:38.748Z,5.30
2019-01-19T10:40:38.734Z,6.50
2019-01-19T10:41:41.070Z,7.20
2019-01-19T10:42:38.710Z,7.30
2019-01-19T10:43:38.703Z,5.40
2019-01-19T10:44:38.686Z,5.80
2019-01-19T10:45:38.675Z,5.90
2019-01-19T10:46:38.661Z,5.30
2019-01-19T10:47:38.652Z,6.00
2019-01-19T10:48:38.640Z,5.70
2019-01-19T10:49:38.648Z,5.50
2019-01-19T10:50:38.614Z,5.20
2019-01-19T10:51:38.605Z,5.20
2019-01-19T10:52:38.591Z,5.80
2019-01-19T10:53:38.581Z,10.40
2019-01-19T10:54:38.567Z,6.30
2019-01-19T10:55:38.563Z,5.70
2019-01-19T10:56:38.544Z,5.30
2019-01-19T10:57:38.540Z,5.80
2019-01-19T10:58:38.524Z,7.90
2019-01-19T10:59:38.512Z,5.50
2019-01-19T11:00:38.500Z,5.40
2019-01-19T11:01:38.488Z,5.90
2019-01-19T11:02:38.474Z,5.60
2019-01-19T11:03:38.467Z,5.40
2019-01-19T11:04:38.453Z,5.60
2019-01-19T11:05:38.442Z,7.00
2019-01-19T11:06:38.428Z,5.80
2019-01-19T11:07:38.421Z,5.30
2019-01-19T11:08:38.407Z,5.80
2019-01-19T11:09:38.397Z,6.00
2019-01-19T11:10:38.383Z,6.30
2019-01-19T11:11:38.376Z,5.10
2019-01-19T11:12:38.362Z,6.20
2019-01-19T11:13:38.353Z,5.10
2019-01-19T11:14:38.340Z,6.30
2019-01-19T11:15:38.331Z,5.90
2019-01-19T11:16:38.318Z,5.00
2019-01-19T11:17:38.309Z,5.00
2019-01-19T11:18:38.295Z,4.70
2019-01-19T11:19:38.288Z,6.10
2019-01-19T11:20:38.275Z,4.70
2019-01-19T11:21:38.266Z,4.50
2019-01-19T11:22:38.253Z,5.60
2019-01-19T11:23:39.819Z,6.20
2019-01-19T11:24:38.232Z,5.70
2019-01-19T11:25:38.223Z,6.00
2019-01-19T11:26:38.210Z,5.30
2019-01-19T11:27:38.205Z,4.10
2019-01-19T11:28:38.190Z,4.90
2019-01-19T11:29:38.185Z,4.40
2019-01-19T11:30:38.170Z,4.10
2019-01-19T11:31:38.160Z,5.70
2019-01-19T11:32:44.303Z,4.60
2019-01-19T11:33:38.138Z,5.00
2019-01-19T11:34:38.130Z,4.70
2019-01-19T11:35:38.117Z,4.30
2019-01-19T11:36:38.110Z,4.30
2019-01-19T11:37:38.097Z,4.50
2019-01-19T11:38:38.094Z,5.10
2019-01-19T11:39:38.077Z,4.20
2019-01-19T11:40:38.071Z,4.70
2019-01-19T11:41:38.055Z,4.00
2019-01-19T11:42:38.048Z,5.00
2019-01-19T11:43:38.036Z,4.30
2019-01-19T11:44:38.030Z,4.30
2019-01-19T11:45:38.017Z,3.90
2019-01-19T11:46:38.009Z,4.10
2019-01-19T11:47:37.998Z,4.10
2019-01-19T11:48:37.993Z,4.30
2019-01-19T11:49:37.979Z,4.20
2019-01-19T11:50:37.971Z,3.60
2019-01-19T11:51:37.971Z,4.40
2019-01-19T11:52:37.954Z,5.50
2019-01-19T11:53:37.942Z,3.70
2019-01-19T11:54:37.936Z,4.30
2019-01-19T11:55:37.923Z,4.40
2019-01-19T11:56:37.918Z,3.70
2019-01-19T11:57:37.914Z,4.00
2019-01-19T11:58:37.897Z,4.20
2019-01-19T11:59:37.887Z,4.20
2019-01-19T12:00:37.879Z,4.10
2019-01-19T12:01:37.868Z,4.20
2019-01-19T12:02:37.860Z,3.90
2019-01-19T12:03:37.849Z,3.90
2019-01-19T12:04:37.843Z,4.10
2019-01-19T12:05:37.830Z,4.90
2019-01-19T12:06:37.822Z,4.80
2019-01-19T12:07:37.812Z,5.00
2019-01-19T12:08:37.805Z,4.50
2019-01-19T12:09:37.794Z,4.10
2019-01-19T12:10:37.786Z,3.90
2019-01-19T12:11:37.774Z,4.30
2019-01-19T12:12:37.767Z,4.30
2019-01-19T12:13:37.757Z,4.60
2019-01-19T12:14:37.749Z,4.40
2019-01-19T12:15:37.737Z,5.80
2019-01-19T12:16:37.730Z,4.10
2019-01-19T12:17:37.717Z,4.60
2019-01-19T12:18:37.709Z,4.40
2019-01-19T12:19:37.699Z,4.30
2019-01-19T12:20:37.691Z,4.40
2019-01-19T12:21:37.679Z,4.30
2019-01-19T12:22:37.672Z,5.40
2019-01-19T12:23:37.660Z,4.40
2019-01-19T12:24:37.655Z,4.50
2019-01-19T12:25:37.641Z,4.00
2019-01-19T12:26:37.635Z,4.50
2019-01-19T12:27:37.623Z,5.20
2019-01-19T12:28:37.617Z,4.40
2019-01-19T12:29:37.605Z,4.60
2019-01-19T12:30:37.601Z,5.10
2019-01-19T12:31:37.588Z,4.70
2019-01-19T12:32:37.584Z,4.20
2019-01-19T12:33:37.570Z,3.30
2019-01-19T12:34:37.563Z,4.10
2019-01-19T12:35:37.565Z,4.00
2019-01-19T12:36:37.546Z,4.60
2019-01-19T12:37:37.534Z,4.30
2019-01-19T12:38:37.531Z,4.20
2019-01-19T12:39:37.521Z,5.10
2019-01-19T12:40:37.514Z,4.70
2019-01-19T12:41:37.499Z,6.20
2019-01-19T12:42:37.493Z,4.60
2019-01-19T12:43:37.484Z,4.10
2019-01-19T12:44:37.477Z,5.90
2019-01-19T12:45:37.466Z,4.60
2019-01-19T12:46:37.461Z,4.10
2019-01-19T12:47:37.450Z,4.70
2019-01-19T12:48:37.444Z,4.50
2019-01-19T12:49:37.434Z,4.10
2019-01-19T12:50:37.428Z,3.80
2019-01-19T12:51:37.419Z,3.50
2019-01-19T12:52:37.413Z,6.00
2019-01-19T12:53:37.404Z,3.60
2019-01-19T12:54:37.396Z,4.10
2019-01-19T12:55:37.388Z,3.50
2019-01-19T12:56:37.381Z,3.20
2019-01-19T12:57:37.571Z,3.50
2019-01-19T12:58:37.368Z,3.70
2019-01-19T12:59:37.356Z,3.60
2019-01-19T13:00:37.350Z,3.70